sensor_id;sensor_type;location;lat;lon;timestamp;temperature;humidity
1347;DHT22;667;48.796;9.480;2022-11-06T00:00:29;9.10;84.20
1347;DHT22;667;48.796;9.480;2022-11-06T00:02:58;9.10;84.20
1347;DHT22;667;48.796;9.480;2022-11-06T00:05:25;9.10;84.30
1347;DHT22;667;48.796;9.480;2022-11-06T00:08:10;9.10;84.40
1347;DHT22;667;48.796;9.480;2022-11-06T00:10:36;9.10;84.10
1347;DHT22;667;48.796;9.480;2022-11-06T00:13:02;9.10;83.90
1347;DHT22;667;48.796;9.480;2022-11-06T00:15:28;9.10;84.00
1347;DHT22;667;48.796;9.480;2022-11-06T00:17:53;9.10;84.10
1347;DHT22;667;48.796;9.480;2022-11-06T00:20:19;9.00;84.00
1347;DHT22;667;48.796;9.480;2022-11-06T00:22:44;9.10;84.80
1347;DHT22;667;48.796;9.480;2022-11-06T00:25:10;9.10;85.20
1347;DHT22;667;48.796;9.480;2022-11-06T00:27:37;9.10;84.60
1347;DHT22;667;48.796;9.480;2022-11-06T00:30:04;9.10;84.40
1347;DHT22;667;48.796;9.480;2022-11-06T00:32:30;9.00;84.30
1347;DHT22;667;48.796;9.480;2022-11-06T00:34:56;9.10;85.10
1347;DHT22;667;48.796;9.480;2022-11-06T00:37:21;9.10;85.40
1347;DHT22;667;48.796;9.480;2022-11-06T00:39:47;9.10;85.40
1347;DHT22;667;48.796;9.480;2022-11-06T00:42:12;9.10;85.00
1347;DHT22;667;48.796;9.480;2022-11-06T00:44:38;9.20;85.10
1347;DHT22;667;48.796;9.480;2022-11-06T00:47:03;9.10;84.50
1347;DHT22;667;48.796;9.480;2022-11-06T00:49:29;9.10;84.50
1347;DHT22;667;48.796;9.480;2022-11-06T00:51:55;9.10;84.80
1347;DHT22;667;48.796;9.480;2022-11-06T00:54:20;9.10;84.80
1347;DHT22;667;48.796;9.480;2022-11-06T00:56:46;9.00;84.80
1347;DHT22;667;48.796;9.480;2022-11-06T00:59:12;9.00;85.00
1347;DHT22;667;48.796;9.480;2022-11-06T01:01:40;9.00;84.70
1347;DHT22;667;48.796;9.480;2022-11-06T01:04:14;8.90;84.80
1347;DHT22;667;48.796;9.480;2022-11-06T01:06:42;8.90;85.40
1347;DHT22;667;48.796;9.480;2022-11-06T01:09:11;9.00;85.80
1347;DHT22;667;48.796;9.480;2022-11-06T01:11:40;9.00;85.70
1347;DHT22;667;48.796;9.480;2022-11-06T01:14:07;9.00;85.90
1347;DHT22;667;48.796;9.480;2022-11-06T01:16:33;9.10;85.80
1347;DHT22;667;48.796;9.480;2022-11-06T01:18:59;9.10;85.80
1347;DHT22;667;48.796;9.480;2022-11-06T01:21:28;9.10;85.50
1347;DHT22;667;48.796;9.480;2022-11-06T01:23:57;9.10;85.30
1347;DHT22;667;48.796;9.480;2022-11-06T01:26:23;9.20;85.40
1347;DHT22;667;48.796;9.480;2022-11-06T01:28:49;9.20;85.10
1347;DHT22;667;48.796;9.480;2022-11-06T01:31:17;9.20;84.70
1347;DHT22;667;48.796;9.480;2022-11-06T01:33:43;9.20;84.60
1347;DHT22;667;48.796;9.480;2022-11-06T01:36:11;9.20;84.50
1347;DHT22;667;48.796;9.480;2022-11-06T01:38:45;9.20;84.20
1347;DHT22;667;48.796;9.480;2022-11-06T01:41:27;9.20;84.20
1347;DHT22;667;48.796;9.480;2022-11-06T01:43:58;9.10;84.20
1347;DHT22;667;48.796;9.480;2022-11-06T01:46:27;9.10;84.50
1347;DHT22;667;48.796;9.480;2022-11-06T01:48:56;9.10;84.20
1347;DHT22;667;48.796;9.480;2022-11-06T01:51:26;9.00;84.40
1347;DHT22;667;48.796;9.480;2022-11-06T01:53:53;9.00;84.80
1347;DHT22;667;48.796;9.480;2022-11-06T01:56:20;9.00;84.00
1347;DHT22;667;48.796;9.480;2022-11-06T01:58:48;9.00;84.10
1347;DHT22;667;48.796;9.480;2022-11-06T02:01:15;9.00;84.50
1347;DHT22;667;48.796;9.480;2022-11-06T02:03:47;9.00;84.90
1347;DHT22;667;48.796;9.480;2022-11-06T02:06:14;9.00;84.80
1347;DHT22;667;48.796;9.480;2022-11-06T02:08:40;9.00;84.60
1347;DHT22;667;48.796;9.480;2022-11-06T02:11:06;8.90;84.00
1347;DHT22;667;48.796;9.480;2022-11-06T02:13:47;8.90;84.10
1347;DHT22;667;48.796;9.480;2022-11-06T02:16:40;8.90;84.30
1347;DHT22;667;48.796;9.480;2022-11-06T02:27:23;8.80;85.00
1347;DHT22;667;48.796;9.480;2022-11-06T02:32:53;8.80;85.00
1347;DHT22;667;48.796;9.480;2022-11-06T02:38:15;8.90;85.10
1347;DHT22;667;48.796;9.480;2022-11-06T02:40:46;8.90;85.00
1347;DHT22;667;48.796;9.480;2022-11-06T02:43:14;8.90;84.40
1347;DHT22;667;48.796;9.480;2022-11-06T02:45:52;8.80;84.10
1347;DHT22;667;48.796;9.480;2022-11-06T02:48:25;8.80;83.90
1347;DHT22;667;48.796;9.480;2022-11-06T02:50:53;8.80;83.70
1347;DHT22;667;48.796;9.480;2022-11-06T02:53:23;8.80;83.80
1347;DHT22;667;48.796;9.480;2022-11-06T02:55:53;8.80;83.90
1347;DHT22;667;48.796;9.480;2022-11-06T03:01:02;8.70;83.90
1347;DHT22;667;48.796;9.480;2022-11-06T03:03:33;8.70;84.20
1347;DHT22;667;48.796;9.480;2022-11-06T03:06:06;8.70;84.30
1347;DHT22;667;48.796;9.480;2022-11-06T03:08:35;8.70;84.40
1347;DHT22;667;48.796;9.480;2022-11-06T03:11:28;8.70;84.30
1347;DHT22;667;48.796;9.480;2022-11-06T03:16:42;8.60;83.80
1347;DHT22;667;48.796;9.480;2022-11-06T03:19:16;8.60;83.80
1347;DHT22;667;48.796;9.480;2022-11-06T03:27:06;8.50;83.20
1347;DHT22;667;48.796;9.480;2022-11-06T03:29:38;8.50;84.10
1347;DHT22;667;48.796;9.480;2022-11-06T03:32:37;8.50;84.80
1347;DHT22;667;48.796;9.480;2022-11-06T03:35:20;8.50;85.10
1347;DHT22;667;48.796;9.480;2022-11-06T03:37:57;8.50;84.50
1347;DHT22;667;48.796;9.480;2022-11-06T03:40:27;8.50;84.50
1347;DHT22;667;48.796;9.480;2022-11-06T03:42:58;8.50;84.50
1347;DHT22;667;48.796;9.480;2022-11-06T03:45:25;8.50;84.80
1347;DHT22;667;48.796;9.480;2022-11-06T03:48:35;8.50;84.60
1347;DHT22;667;48.796;9.480;2022-11-06T03:51:16;8.50;83.90
1347;DHT22;667;48.796;9.480;2022-11-06T03:53:55;8.40;84.20
1347;DHT22;667;48.796;9.480;2022-11-06T03:56:40;8.40;84.10
1347;DHT22;667;48.796;9.480;2022-11-06T03:59:08;8.40;83.50
1347;DHT22;667;48.796;9.480;2022-11-06T04:01:38;8.40;83.20
1347;DHT22;667;48.796;9.480;2022-11-06T04:04:17;8.40;83.30
1347;DHT22;667;48.796;9.480;2022-11-06T04:07:07;8.30;82.90
1347;DHT22;667;48.796;9.480;2022-11-06T04:09:37;8.30;82.60
1347;DHT22;667;48.796;9.480;2022-11-06T04:12:24;8.30;82.90
1347;DHT22;667;48.796;9.480;2022-11-06T04:15:11;8.20;82.80
1347;DHT22;667;48.796;9.480;2022-11-06T04:17:38;8.20;82.30
1347;DHT22;667;48.796;9.480;2022-11-06T04:20:09;8.10;82.50
1347;DHT22;667;48.796;9.480;2022-11-06T04:22:43;8.10;82.60
1347;DHT22;667;48.796;9.480;2022-11-06T04:38:41;8.00;81.60
1347;DHT22;667;48.796;9.480;2022-11-06T04:41:20;8.00;81.60
1347;DHT22;667;48.796;9.480;2022-11-06T04:43:58;8.00;82.10
1347;DHT22;667;48.796;9.480;2022-11-06T04:46:34;8.00;82.40
1347;DHT22;667;48.796;9.480;2022-11-06T04:49:02;8.00;83.00
1347;DHT22;667;48.796;9.480;2022-11-06T04:51:32;8.00;83.20
1347;DHT22;667;48.796;9.480;2022-11-06T04:54:00;8.00;83.00
1347;DHT22;667;48.796;9.480;2022-11-06T04:56:29;8.00;82.70
1347;DHT22;667;48.796;9.480;2022-11-06T04:58:55;8.00;82.70
1347;DHT22;667;48.796;9.480;2022-11-06T05:01:21;8.00;82.30
1347;DHT22;667;48.796;9.480;2022-11-06T05:03:47;7.90;82.30
1347;DHT22;667;48.796;9.480;2022-11-06T05:06:12;7.80;82.40
1347;DHT22;667;48.796;9.480;2022-11-06T05:08:38;7.80;82.60
1347;DHT22;667;48.796;9.480;2022-11-06T05:11:04;7.80;82.70
1347;DHT22;667;48.796;9.480;2022-11-06T05:13:30;7.80;83.00
1347;DHT22;667;48.796;9.480;2022-11-06T05:15:57;7.80;83.20
1347;DHT22;667;48.796;9.480;2022-11-06T05:18:23;7.80;83.10
1347;DHT22;667;48.796;9.480;2022-11-06T05:20:49;7.70;82.30
1347;DHT22;667;48.796;9.480;2022-11-06T05:23:35;7.70;82.70
1347;DHT22;667;48.796;9.480;2022-11-06T05:26:06;7.70;83.20
1347;DHT22;667;48.796;9.480;2022-11-06T05:28:31;7.70;83.60
1347;DHT22;667;48.796;9.480;2022-11-06T05:30:57;7.80;84.10
1347;DHT22;667;48.796;9.480;2022-11-06T05:33:23;7.80;83.70
1347;DHT22;667;48.796;9.480;2022-11-06T05:35:49;7.80;83.90
1347;DHT22;667;48.796;9.480;2022-11-06T05:38:15;7.80;83.90
1347;DHT22;667;48.796;9.480;2022-11-06T05:40:41;7.90;84.00
1347;DHT22;667;48.796;9.480;2022-11-06T05:43:06;7.90;83.70
1347;DHT22;667;48.796;9.480;2022-11-06T05:45:32;7.90;83.40
1347;DHT22;667;48.796;9.480;2022-11-06T05:48:00;7.90;83.30
1347;DHT22;667;48.796;9.480;2022-11-06T05:50:25;7.90;83.20
1347;DHT22;667;48.796;9.480;2022-11-06T05:52:51;7.90;83.00
1347;DHT22;667;48.796;9.480;2022-11-06T05:55:17;7.90;82.80
1347;DHT22;667;48.796;9.480;2022-11-06T05:57:43;7.90;82.70
1347;DHT22;667;48.796;9.480;2022-11-06T06:00:10;7.90;81.80
1347;DHT22;667;48.796;9.480;2022-11-06T06:02:36;7.80;81.20
1347;DHT22;667;48.796;9.480;2022-11-06T06:05:02;7.80;81.40
1347;DHT22;667;48.796;9.480;2022-11-06T06:07:29;7.70;81.70
1347;DHT22;667;48.796;9.480;2022-11-06T06:09:55;7.70;82.10
1347;DHT22;667;48.796;9.480;2022-11-06T06:12:21;7.60;82.50
1347;DHT22;667;48.796;9.480;2022-11-06T06:14:48;7.60;82.50
1347;DHT22;667;48.796;9.480;2022-11-06T06:17:14;7.60;82.60
1347;DHT22;667;48.796;9.480;2022-11-06T06:19:40;7.60;83.10
1347;DHT22;667;48.796;9.480;2022-11-06T06:22:05;7.60;83.00
1347;DHT22;667;48.796;9.480;2022-11-06T06:24:31;7.60;83.00
1347;DHT22;667;48.796;9.480;2022-11-06T06:26:57;7.50;82.50
1347;DHT22;667;48.796;9.480;2022-11-06T06:29:22;7.50;82.70
1347;DHT22;667;48.796;9.480;2022-11-06T06:31:48;7.60;83.10
1347;DHT22;667;48.796;9.480;2022-11-06T06:34:14;7.60;82.50
1347;DHT22;667;48.796;9.480;2022-11-06T06:36:39;7.60;82.40
1347;DHT22;667;48.796;9.480;2022-11-06T06:39:05;7.60;82.60
1347;DHT22;667;48.796;9.480;2022-11-06T06:41:31;7.60;82.30
1347;DHT22;667;48.796;9.480;2022-11-06T06:43:57;7.60;81.70
1347;DHT22;667;48.796;9.480;2022-11-06T06:46:23;7.60;81.60
1347;DHT22;667;48.796;9.480;2022-11-06T06:48:48;7.60;81.60
1347;DHT22;667;48.796;9.480;2022-11-06T06:51:14;7.60;81.70
1347;DHT22;667;48.796;9.480;2022-11-06T06:53:40;7.60;81.50
1347;DHT22;667;48.796;9.480;2022-11-06T06:56:05;7.50;81.90
1347;DHT22;667;48.796;9.480;2022-11-06T06:58:31;7.50;81.50
1347;DHT22;667;48.796;9.480;2022-11-06T07:01:02;7.50;81.80
1347;DHT22;667;48.796;9.480;2022-11-06T07:03:27;7.50;82.60
1347;DHT22;667;48.796;9.480;2022-11-06T07:05:53;7.60;83.10
1347;DHT22;667;48.796;9.480;2022-11-06T07:08:19;7.60;82.50
1347;DHT22;667;48.796;9.480;2022-11-06T07:10:44;7.50;82.10
1347;DHT22;667;48.796;9.480;2022-11-06T07:13:10;7.50;82.30
1347;DHT22;667;48.796;9.480;2022-11-06T07:15:36;7.50;82.40
1347;DHT22;667;48.796;9.480;2022-11-06T07:18:05;7.50;82.50
1347;DHT22;667;48.796;9.480;2022-11-06T07:20:32;7.50;83.10
1347;DHT22;667;48.796;9.480;2022-11-06T07:22:58;7.50;82.80
1347;DHT22;667;48.796;9.480;2022-11-06T07:25:24;7.50;83.10
1347;DHT22;667;48.796;9.480;2022-11-06T07:27:50;7.50;83.70
1347;DHT22;667;48.796;9.480;2022-11-06T07:30:16;7.60;83.60
1347;DHT22;667;48.796;9.480;2022-11-06T07:32:41;7.60;84.00
1347;DHT22;667;48.796;9.480;2022-11-06T07:35:08;7.60;83.80
1347;DHT22;667;48.796;9.480;2022-11-06T07:37:34;7.60;83.20
1347;DHT22;667;48.796;9.480;2022-11-06T07:40:00;7.60;83.30
1347;DHT22;667;48.796;9.480;2022-11-06T07:42:27;7.60;83.00
1347;DHT22;667;48.796;9.480;2022-11-06T07:44:52;7.60;83.10
1347;DHT22;667;48.796;9.480;2022-11-06T07:47:20;7.60;83.50
1347;DHT22;667;48.796;9.480;2022-11-06T07:49:46;7.60;83.40
1347;DHT22;667;48.796;9.480;2022-11-06T07:52:11;7.60;83.20
1347;DHT22;667;48.796;9.480;2022-11-06T07:54:37;7.60;83.20
1347;DHT22;667;48.796;9.480;2022-11-06T07:57:02;7.60;83.60
1347;DHT22;667;48.796;9.480;2022-11-06T07:59:28;7.60;84.20
1347;DHT22;667;48.796;9.480;2022-11-06T08:01:53;7.60;84.00
1347;DHT22;667;48.796;9.480;2022-11-06T08:04:19;7.60;84.10
1347;DHT22;667;48.796;9.480;2022-11-06T08:06:45;7.60;83.90
1347;DHT22;667;48.796;9.480;2022-11-06T08:09:10;7.60;83.50
1347;DHT22;667;48.796;9.480;2022-11-06T08:11:36;7.60;83.50
1347;DHT22;667;48.796;9.480;2022-11-06T08:14:02;7.60;83.90
1347;DHT22;667;48.796;9.480;2022-11-06T08:16:27;7.60;84.40
1347;DHT22;667;48.796;9.480;2022-11-06T08:18:53;7.70;84.60
1347;DHT22;667;48.796;9.480;2022-11-06T08:21:19;7.70;84.60
1347;DHT22;667;48.796;9.480;2022-11-06T08:23:44;7.70;84.50
1347;DHT22;667;48.796;9.480;2022-11-06T08:26:10;7.80;84.80
1347;DHT22;667;48.796;9.480;2022-11-06T08:28:37;7.80;84.20
1347;DHT22;667;48.796;9.480;2022-11-06T08:31:07;7.80;84.30
1347;DHT22;667;48.796;9.480;2022-11-06T08:33:34;7.80;84.20
1347;DHT22;667;48.796;9.480;2022-11-06T08:36:04;7.80;84.30
1347;DHT22;667;48.796;9.480;2022-11-06T08:38:30;7.90;84.30
1347;DHT22;667;48.796;9.480;2022-11-06T08:40:56;7.90;84.00
1347;DHT22;667;48.796;9.480;2022-11-06T08:43:21;7.90;84.50
1347;DHT22;667;48.796;9.480;2022-11-06T08:45:50;7.90;84.80
1347;DHT22;667;48.796;9.480;2022-11-06T08:48:16;8.00;85.30
1347;DHT22;667;48.796;9.480;2022-11-06T08:50:42;8.00;85.30
1347;DHT22;667;48.796;9.480;2022-11-06T08:53:07;8.10;85.70
1347;DHT22;667;48.796;9.480;2022-11-06T08:55:35;8.20;86.10
1347;DHT22;667;48.796;9.480;2022-11-06T08:58:01;8.20;85.90
1347;DHT22;667;48.796;9.480;2022-11-06T09:00:27;8.30;85.80
1347;DHT22;667;48.796;9.480;2022-11-06T09:03:04;8.40;86.00
1347;DHT22;667;48.796;9.480;2022-11-06T09:05:30;8.60;85.90
1347;DHT22;667;48.796;9.480;2022-11-06T09:07:57;8.80;86.10
1347;DHT22;667;48.796;9.480;2022-11-06T09:10:23;9.10;86.50
1347;DHT22;667;48.796;9.480;2022-11-06T09:12:49;9.30;86.10
1347;DHT22;667;48.796;9.480;2022-11-06T09:15:15;9.60;85.60
1347;DHT22;667;48.796;9.480;2022-11-06T09:17:49;9.80;85.40
1347;DHT22;667;48.796;9.480;2022-11-06T09:20:16;10.00;83.90
1347;DHT22;667;48.796;9.480;2022-11-06T09:22:44;10.30;84.00
1347;DHT22;667;48.796;9.480;2022-11-06T09:25:09;10.50;82.80
1347;DHT22;667;48.796;9.480;2022-11-06T09:27:50;10.70;82.90
1347;DHT22;667;48.796;9.480;2022-11-06T09:30:18;11.00;81.90
1347;DHT22;667;48.796;9.480;2022-11-06T09:32:46;11.30;81.50
1347;DHT22;667;48.796;9.480;2022-11-06T09:35:12;11.70;81.40
1347;DHT22;667;48.796;9.480;2022-11-06T09:37:37;12.10;80.00
1347;DHT22;667;48.796;9.480;2022-11-06T09:40:03;12.30;78.00
1347;DHT22;667;48.796;9.480;2022-11-06T09:45:14;12.90;76.00
1347;DHT22;667;48.796;9.480;2022-11-06T09:47:51;13.30;74.00
1347;DHT22;667;48.796;9.480;2022-11-06T09:50:23;13.70;72.80
1347;DHT22;667;48.796;9.480;2022-11-06T09:53:04;14.00;71.50
1347;DHT22;667;48.796;9.480;2022-11-06T09:55:40;14.20;70.40
1347;DHT22;667;48.796;9.480;2022-11-06T09:58:24;14.40;69.70
1347;DHT22;667;48.796;9.480;2022-11-06T10:00:52;14.60;69.10
1347;DHT22;667;48.796;9.480;2022-11-06T10:03:21;14.90;69.60
1347;DHT22;667;48.796;9.480;2022-11-06T10:05:51;15.30;68.70
1347;DHT22;667;48.796;9.480;2022-11-06T10:08:22;15.70;66.40
1347;DHT22;667;48.796;9.480;2022-11-06T10:19:24;17.00;63.40
1347;DHT22;667;48.796;9.480;2022-11-06T10:24:28;17.70;61.50
1347;DHT22;667;48.796;9.480;2022-11-06T10:26:56;18.20;60.30
1347;DHT22;667;48.796;9.480;2022-11-06T10:37:40;18.10;58.00
1347;DHT22;667;48.796;9.480;2022-11-06T10:40:18;17.40;59.90
1347;DHT22;667;48.796;9.480;2022-11-06T10:42:54;16.90;61.30
1347;DHT22;667;48.796;9.480;2022-11-06T10:45:22;16.50;62.40
1347;DHT22;667;48.796;9.480;2022-11-06T10:47:54;16.20;63.40
1347;DHT22;667;48.796;9.480;2022-11-06T10:50:24;16.00;64.30
1347;DHT22;667;48.796;9.480;2022-11-06T11:00:27;15.50;65.30
1347;DHT22;667;48.796;9.480;2022-11-06T11:02:59;15.40;65.00
1347;DHT22;667;48.796;9.480;2022-11-06T11:05:30;15.30;64.60
1347;DHT22;667;48.796;9.480;2022-11-06T11:07:56;15.20;65.00
1347;DHT22;667;48.796;9.480;2022-11-06T11:12:48;15.00;65.30
1347;DHT22;667;48.796;9.480;2022-11-06T11:15:17;14.90;64.10
1347;DHT22;667;48.796;9.480;2022-11-06T11:18:07;14.70;64.00
1347;DHT22;667;48.796;9.480;2022-11-06T11:20:36;14.50;64.60
1347;DHT22;667;48.796;9.480;2022-11-06T11:25:48;14.30;66.50
1347;DHT22;667;48.796;9.480;2022-11-06T11:28:31;14.30;66.00
1347;DHT22;667;48.796;9.480;2022-11-06T11:31:07;14.20;65.50
1347;DHT22;667;48.796;9.480;2022-11-06T11:33:34;14.20;65.60
1347;DHT22;667;48.796;9.480;2022-11-06T11:36:01;14.10;65.70
1347;DHT22;667;48.796;9.480;2022-11-06T11:38:29;14.00;65.90
1347;DHT22;667;48.796;9.480;2022-11-06T11:46:20;13.90;66.50
1347;DHT22;667;48.796;9.480;2022-11-06T11:48:56;13.90;67.00
1347;DHT22;667;48.796;9.480;2022-11-06T11:51:37;13.90;67.10
1347;DHT22;667;48.796;9.480;2022-11-06T11:56:47;13.90;66.10
1347;DHT22;667;48.796;9.480;2022-11-06T11:59:41;13.90;65.10
1347;DHT22;667;48.796;9.480;2022-11-06T12:04:45;13.80;66.00
1347;DHT22;667;48.796;9.480;2022-11-06T12:07:23;13.80;65.10
1347;DHT22;667;48.796;9.480;2022-11-06T12:09:49;13.80;66.00
1347;DHT22;667;48.796;9.480;2022-11-06T12:12:35;13.80;65.50
1347;DHT22;667;48.796;9.480;2022-11-06T12:20:25;13.90;66.10
1347;DHT22;667;48.796;9.480;2022-11-06T12:22:53;13.80;64.90
1347;DHT22;667;48.796;9.480;2022-11-06T12:25:24;13.80;64.60
1347;DHT22;667;48.796;9.480;2022-11-06T12:27:53;13.80;64.70
1347;DHT22;667;48.796;9.480;2022-11-06T12:30:19;13.70;65.30
1347;DHT22;667;48.796;9.480;2022-11-06T12:35:32;13.80;64.60
1347;DHT22;667;48.796;9.480;2022-11-06T12:40:37;13.70;65.00
1347;DHT22;667;48.796;9.480;2022-11-06T12:56:21;13.70;64.60
1347;DHT22;667;48.796;9.480;2022-11-06T12:59:02;13.70;64.80
1347;DHT22;667;48.796;9.480;2022-11-06T13:04:31;13.70;64.90
1347;DHT22;667;48.796;9.480;2022-11-06T13:12:44;13.70;64.50
1347;DHT22;667;48.796;9.480;2022-11-06T13:20:37;13.50;64.80
1347;DHT22;667;48.796;9.480;2022-11-06T13:23:12;13.50;64.80
1347;DHT22;667;48.796;9.480;2022-11-06T13:26:11;13.50;64.60
1347;DHT22;667;48.796;9.480;2022-11-06T13:28:47;13.50;64.10
1347;DHT22;667;48.796;9.480;2022-11-06T13:31:18;13.40;64.20
1347;DHT22;667;48.796;9.480;2022-11-06T13:33:50;13.40;64.30
1347;DHT22;667;48.796;9.480;2022-11-06T13:36:21;13.30;64.10
1347;DHT22;667;48.796;9.480;2022-11-06T13:38:59;13.30;63.60
1347;DHT22;667;48.796;9.480;2022-11-06T13:41:29;13.20;64.10
1347;DHT22;667;48.796;9.480;2022-11-06T13:44:02;13.20;64.50
1347;DHT22;667;48.796;9.480;2022-11-06T13:52:07;13.20;64.60
1347;DHT22;667;48.796;9.480;2022-11-06T14:08:19;12.90;65.00
1347;DHT22;667;48.796;9.480;2022-11-06T14:10:57;12.80;65.30
1347;DHT22;667;48.796;9.480;2022-11-06T14:13:26;12.80;66.40
1347;DHT22;667;48.796;9.480;2022-11-06T14:16:02;12.70;66.20
1347;DHT22;667;48.796;9.480;2022-11-06T14:18:28;12.70;65.40
1347;DHT22;667;48.796;9.480;2022-11-06T14:24:03;12.60;65.90
1347;DHT22;667;48.796;9.480;2022-11-06T14:26:36;12.60;65.90
1347;DHT22;667;48.796;9.480;2022-11-06T14:32:31;12.50;66.40
1347;DHT22;667;48.796;9.480;2022-11-06T14:35:29;12.50;66.30
1347;DHT22;667;48.796;9.480;2022-11-06T14:40:12;12.30;67.20
1347;DHT22;667;48.796;9.480;2022-11-06T14:42:45;12.30;66.80
1347;DHT22;667;48.796;9.480;2022-11-06T14:45:19;12.30;67.20
1347;DHT22;667;48.796;9.480;2022-11-06T14:52:49;12.20;67.80
1347;DHT22;667;48.796;9.480;2022-11-06T14:55:29;12.20;68.70
1347;DHT22;667;48.796;9.480;2022-11-06T15:06:19;12.10;68.40
1347;DHT22;667;48.796;9.480;2022-11-06T15:16:35;12.00;69.00
1347;DHT22;667;48.796;9.480;2022-11-06T15:19:12;11.90;69.20
1347;DHT22;667;48.796;9.480;2022-11-06T15:21:48;12.00;69.70
1347;DHT22;667;48.796;9.480;2022-11-06T15:24:19;12.00;69.80
1347;DHT22;667;48.796;9.480;2022-11-06T15:26:50;12.00;69.80
1347;DHT22;667;48.796;9.480;2022-11-06T15:29:23;12.00;69.80
1347;DHT22;667;48.796;9.480;2022-11-06T15:31:52;12.00;70.10
1347;DHT22;667;48.796;9.480;2022-11-06T15:34:36;12.00;70.20
1347;DHT22;667;48.796;9.480;2022-11-06T15:42:20;12.00;70.70
1347;DHT22;667;48.796;9.480;2022-11-06T15:44:47;12.00;70.60
1347;DHT22;667;48.796;9.480;2022-11-06T15:47:27;12.00;70.80
1347;DHT22;667;48.796;9.480;2022-11-06T15:50:19;12.00;71.10
1347;DHT22;667;48.796;9.480;2022-11-06T15:52:46;12.00;71.40
1347;DHT22;667;48.796;9.480;2022-11-06T15:57:49;12.00;71.30
1347;DHT22;667;48.796;9.480;2022-11-06T16:00:21;11.90;71.10
1347;DHT22;667;48.796;9.480;2022-11-06T16:05:16;11.90;72.00
1347;DHT22;667;48.796;9.480;2022-11-06T16:07:43;11.90;72.30
1347;DHT22;667;48.796;9.480;2022-11-06T16:10:21;11.80;72.30
1347;DHT22;667;48.796;9.480;2022-11-06T16:12:50;11.80;72.60
1347;DHT22;667;48.796;9.480;2022-11-06T16:23:23;11.70;73.20
1347;DHT22;667;48.796;9.480;2022-11-06T16:25:56;11.60;72.90
1347;DHT22;667;48.796;9.480;2022-11-06T16:28:25;11.50;72.90
1347;DHT22;667;48.796;9.480;2022-11-06T16:30:51;11.50;73.30
1347;DHT22;667;48.796;9.480;2022-11-06T16:33:21;11.40;74.30
1347;DHT22;667;48.796;9.480;2022-11-06T16:35:49;11.40;73.90
1347;DHT22;667;48.796;9.480;2022-11-06T16:40:49;11.30;74.40
1347;DHT22;667;48.796;9.480;2022-11-06T16:43:18;11.30;74.70
1347;DHT22;667;48.796;9.480;2022-11-06T16:46:10;11.20;74.80
1347;DHT22;667;48.796;9.480;2022-11-06T16:48:41;11.20;74.80
1347;DHT22;667;48.796;9.480;2022-11-06T16:51:12;11.10;74.90
1347;DHT22;667;48.796;9.480;2022-11-06T16:53:51;11.10;75.30
1347;DHT22;667;48.796;9.480;2022-11-06T16:56:24;11.10;75.40
1347;DHT22;667;48.796;9.480;2022-11-06T16:58:55;11.00;75.70
1347;DHT22;667;48.796;9.480;2022-11-06T17:01:21;11.00;75.80
1347;DHT22;667;48.796;9.480;2022-11-06T17:03:48;11.00;75.90
1347;DHT22;667;48.796;9.480;2022-11-06T17:06:21;11.00;76.00
1347;DHT22;667;48.796;9.480;2022-11-06T17:08:57;11.00;76.00
1347;DHT22;667;48.796;9.480;2022-11-06T17:11:23;11.10;76.30
1347;DHT22;667;48.796;9.480;2022-11-06T17:13:49;11.00;76.40
1347;DHT22;667;48.796;9.480;2022-11-06T17:16:18;11.00;76.40
1347;DHT22;667;48.796;9.480;2022-11-06T17:18:44;11.00;76.60
1347;DHT22;667;48.796;9.480;2022-11-06T17:21:11;11.00;76.50
1347;DHT22;667;48.796;9.480;2022-11-06T17:23:37;11.00;76.70
1347;DHT22;667;48.796;9.480;2022-11-06T17:26:06;11.00;76.80
1347;DHT22;667;48.796;9.480;2022-11-06T17:28:34;10.90;76.90
1347;DHT22;667;48.796;9.480;2022-11-06T17:31:01;10.90;77.10
1347;DHT22;667;48.796;9.480;2022-11-06T17:33:26;10.90;77.60
1347;DHT22;667;48.796;9.480;2022-11-06T17:35:52;10.90;77.10
1347;DHT22;667;48.796;9.480;2022-11-06T17:38:18;10.90;77.30
1347;DHT22;667;48.796;9.480;2022-11-06T17:40:44;10.90;77.50
1347;DHT22;667;48.796;9.480;2022-11-06T17:43:10;10.90;77.70
1347;DHT22;667;48.796;9.480;2022-11-06T17:45:37;10.90;78.00
1347;DHT22;667;48.796;9.480;2022-11-06T17:48:03;10.90;78.20
1347;DHT22;667;48.796;9.480;2022-11-06T17:50:29;10.80;78.20
1347;DHT22;667;48.796;9.480;2022-11-06T17:53:15;10.90;78.30
1347;DHT22;667;48.796;9.480;2022-11-06T17:55:40;10.90;78.30
1347;DHT22;667;48.796;9.480;2022-11-06T17:58:06;10.90;78.40
1347;DHT22;667;48.796;9.480;2022-11-06T18:00:31;10.90;78.30
1347;DHT22;667;48.796;9.480;2022-11-06T18:02:57;10.90;78.30
1347;DHT22;667;48.796;9.480;2022-11-06T18:05:22;10.90;78.40
1347;DHT22;667;48.796;9.480;2022-11-06T18:07:48;10.90;78.60
1347;DHT22;667;48.796;9.480;2022-11-06T18:10:13;10.90;78.60
1347;DHT22;667;48.796;9.480;2022-11-06T18:12:39;10.90;78.90
1347;DHT22;667;48.796;9.480;2022-11-06T18:15:05;10.90;78.80
1347;DHT22;667;48.796;9.480;2022-11-06T18:17:30;10.90;78.90
1347;DHT22;667;48.796;9.480;2022-11-06T18:19:56;10.90;79.00
1347;DHT22;667;48.796;9.480;2022-11-06T18:22:22;11.00;79.10
1347;DHT22;667;48.796;9.480;2022-11-06T18:24:48;11.00;78.90
1347;DHT22;667;48.796;9.480;2022-11-06T18:27:13;11.00;79.00
1347;DHT22;667;48.796;9.480;2022-11-06T18:29:39;11.00;79.00
1347;DHT22;667;48.796;9.480;2022-11-06T18:32:04;11.00;79.10
1347;DHT22;667;48.796;9.480;2022-11-06T18:34:30;11.00;79.10
1347;DHT22;667;48.796;9.480;2022-11-06T18:36:56;11.00;79.20
1347;DHT22;667;48.796;9.480;2022-11-06T18:39:21;11.00;79.10
1347;DHT22;667;48.796;9.480;2022-11-06T18:41:47;11.00;79.00
1347;DHT22;667;48.796;9.480;2022-11-06T18:44:14;11.00;79.00
1347;DHT22;667;48.796;9.480;2022-11-06T18:46:40;11.00;79.20
1347;DHT22;667;48.796;9.480;2022-11-06T18:49:08;11.00;79.30
1347;DHT22;667;48.796;9.480;2022-11-06T18:51:34;11.00;80.00
1347;DHT22;667;48.796;9.480;2022-11-06T18:54:02;11.00;79.30
1347;DHT22;667;48.796;9.480;2022-11-06T18:56:29;11.00;79.60
1347;DHT22;667;48.796;9.480;2022-11-06T18:58:54;11.00;80.30
1347;DHT22;667;48.796;9.480;2022-11-06T19:01:20;10.90;79.50
1347;DHT22;667;48.796;9.480;2022-11-06T19:03:48;10.90;79.70
1347;DHT22;667;48.796;9.480;2022-11-06T19:06:16;10.90;79.80
1347;DHT22;667;48.796;9.480;2022-11-06T19:08:42;10.90;79.90
1347;DHT22;667;48.796;9.480;2022-11-06T19:11:11;10.90;79.80
1347;DHT22;667;48.796;9.480;2022-11-06T19:13:37;10.90;80.00
1347;DHT22;667;48.796;9.480;2022-11-06T19:16:04;10.90;80.80
1347;DHT22;667;48.796;9.480;2022-11-06T19:18:33;10.90;80.20
1347;DHT22;667;48.796;9.480;2022-11-06T19:20:59;10.90;80.30
1347;DHT22;667;48.796;9.480;2022-11-06T19:23:28;10.90;80.40
1347;DHT22;667;48.796;9.480;2022-11-06T19:25:53;11.00;80.60
1347;DHT22;667;48.796;9.480;2022-11-06T19:28:19;11.00;80.70
1347;DHT22;667;48.796;9.480;2022-11-06T19:30:45;11.00;80.60
1347;DHT22;667;48.796;9.480;2022-11-06T19:33:11;11.00;80.40
1347;DHT22;667;48.796;9.480;2022-11-06T19:35:36;11.00;80.60
1347;DHT22;667;48.796;9.480;2022-11-06T19:38:04;11.10;81.00
1347;DHT22;667;48.796;9.480;2022-11-06T19:40:30;11.10;80.90
1347;DHT22;667;48.796;9.480;2022-11-06T19:42:59;11.10;80.90
1347;DHT22;667;48.796;9.480;2022-11-06T19:45:25;11.20;81.10
1347;DHT22;667;48.796;9.480;2022-11-06T19:47:52;11.20;81.10
1347;DHT22;667;48.796;9.480;2022-11-06T19:50:18;11.20;81.20
1347;DHT22;667;48.796;9.480;2022-11-06T19:52:45;11.20;81.10